createdAt,value
2022-11-22T00:03:02.085Z,95
2022-11-22T00:08:02.048Z,95.1
2022-11-22T00:13:02.082Z,95.3
2022-11-22T00:18:02.725Z,95.4
2022-11-22T00:23:02.539Z,95.7
2022-11-22T00:28:02.761Z,96.1
2022-11-22T00:33:02.963Z,96.4
2022-11-22T00:38:02.652Z,96.7
2022-11-22T00:48:15.824Z,97
2022-11-22T00:53:15.784Z,97
2022-11-22T00:58:15.819Z,97.2
2022-11-22T01:03:15.918Z,97.5
2022-11-22T01:08:15.729Z,97.9
2022-11-22T01:13:15.715Z,98
2022-11-22T01:18:15.693Z,98.4
2022-11-22T01:23:15.680Z,98.7
2022-11-22T01:28:15.725Z,98.9
2022-11-22T01:33:15.721Z,99
2022-11-22T01:38:15.707Z,99
2022-11-22T01:43:15.735Z,99.1
2022-11-22T01:48:16.143Z,99.2
2022-11-22T01:53:15.718Z,99.2
2022-11-22T01:58:15.693Z,99.2
2022-11-22T02:03:15.693Z,99.2
2022-11-22T02:08:15.710Z,99.2
2022-11-22T02:13:15.685Z,99.1
2022-11-22T02:18:15.684Z,99.1
2022-11-22T02:23:15.716Z,99.3
2022-11-22T02:28:15.703Z,99.4
2022-11-22T02:33:15.815Z,99.6
2022-11-22T02:38:15.668Z,99.5
2022-11-22T02:43:15.693Z,99.6
2022-11-22T02:48:15.690Z,99.5
2022-11-22T02:53:15.672Z,99.4
2022-11-22T02:58:15.661Z,99.5
2022-11-22T03:03:15.661Z,99.5
2022-11-22T03:08:15.686Z,99.6
2022-11-22T03:13:15.662Z,99.7
2022-11-22T03:18:15.660Z,99.7
2022-11-22T03:23:15.662Z,99.9
2022-11-22T03:28:15.685Z,99.9
2022-11-22T03:33:15.663Z,99.9
2022-11-22T03:38:15.652Z,99.9
2022-11-22T03:43:15.664Z,99.9
2022-11-22T03:48:15.693Z,99.9
2022-11-22T03:53:15.651Z,99.9
2022-11-22T03:58:15.661Z,99.9
2022-11-22T04:03:15.787Z,99.9
2022-11-22T04:08:15.760Z,99.9
2022-11-22T04:13:15.673Z,99.9
2022-11-22T04:18:15.661Z,99.9
2022-11-22T04:23:15.661Z,99.9
2022-11-22T04:28:15.705Z,99.9
2022-11-22T04:33:15.690Z,99.9
2022-11-22T04:38:15.688Z,99.9
2022-11-22T04:43:15.691Z,99.9
2022-11-22T04:48:15.688Z,99.9
2022-11-22T04:53:15.675Z,99.9
2022-11-22T04:58:15.663Z,99.9
2022-11-22T05:03:15.847Z,99.9
2022-11-22T05:08:15.694Z,99.9
2022-11-22T05:13:15.671Z,99.9
2022-11-22T05:18:15.668Z,99.9
2022-11-22T05:23:15.669Z,99.9
2022-11-22T05:28:15.697Z,99.9
2022-11-22T05:33:15.670Z,99.9
2022-11-22T05:38:15.689Z,99.9
2022-11-22T05:43:15.683Z,99.9
2022-11-22T05:48:15.704Z,99.9
2022-11-22T05:53:15.684Z,99.9
2022-11-22T05:58:15.670Z,99.9
2022-11-22T06:03:15.872Z,99.9
2022-11-22T06:08:15.705Z,99.9
2022-11-22T06:13:15.689Z,99.9
2022-11-22T06:18:15.653Z,99.9
2022-11-22T06:23:15.686Z,99.9
2022-11-22T06:28:15.705Z,99.9
2022-11-22T06:33:15.685Z,99.9
2022-11-22T06:38:15.674Z,99.9
2022-11-22T06:43:15.689Z,99.9
2022-11-22T06:48:15.704Z,99.9
2022-11-22T06:53:32.580Z,99.9
2022-11-22T06:58:15.688Z,99.9
2022-11-22T07:03:15.753Z,99.9
2022-11-22T07:08:15.775Z,99.9
2022-11-22T07:13:15.672Z,99.9
2022-11-22T07:18:15.662Z,99.9
2022-11-22T07:23:15.689Z,99.9
2022-11-22T07:28:15.713Z,99.9
2022-11-22T07:33:15.685Z,99.9
2022-11-22T07:38:15.673Z,99.9
2022-11-22T07:43:15.678Z,99.9
2022-11-22T07:48:15.676Z,99.9
2022-11-22T07:53:15.716Z,99.9
2022-11-22T07:58:15.657Z,99.9
2022-11-22T08:03:17.734Z,99.9
2022-11-22T08:08:15.781Z,99.9
2022-11-22T08:13:15.656Z,99.9
2022-11-22T08:18:15.653Z,99.9
2022-11-22T08:23:15.665Z,99.9
2022-11-22T08:28:15.772Z,99.9
2022-11-22T08:33:15.857Z,99.9
2022-11-22T08:38:15.651Z,99.9
2022-11-22T08:43:15.801Z,99.9
2022-11-22T08:48:21.751Z,99.9
2022-11-22T08:53:15.694Z,99.9
2022-11-22T08:58:15.662Z,99.9
2022-11-22T09:03:15.662Z,99.9
2022-11-22T09:08:22.947Z,99.9
2022-11-22T09:13:15.703Z,99.9
2022-11-22T09:18:15.701Z,99.9
2022-11-22T09:23:15.698Z,99.9
2022-11-22T09:28:15.933Z,99.9
2022-11-22T09:33:15.710Z,99.9
2022-11-22T09:38:15.729Z,99.9
2022-11-22T09:43:15.740Z,99.9
2022-11-22T09:48:15.817Z,99.9
2022-11-22T09:53:15.722Z,99.9
2022-11-22T09:58:15.704Z,99.9
2022-11-22T10:03:15.727Z,99.9
2022-11-22T10:08:15.867Z,99.9
2022-11-22T10:13:15.712Z,99.9
2022-11-22T10:18:15.726Z,99.9
2022-11-22T10:23:15.709Z,99.9
2022-11-22T10:28:15.827Z,99.9
2022-11-22T10:33:15.863Z,99.9
2022-11-22T10:38:15.739Z,99.9
2022-11-22T10:43:15.786Z,99.9
2022-11-22T10:48:15.937Z,99.9
2022-11-22T10:53:15.749Z,99.9
2022-11-22T10:58:15.752Z,99.9
2022-11-22T11:03:15.741Z,99.9
2022-11-22T11:08:39.575Z,99.9
2022-11-22T11:13:15.760Z,99.9
2022-11-22T11:18:15.743Z,99.9
2022-11-22T11:23:16.438Z,99.9
2022-11-22T11:28:15.874Z,99.9
2022-11-22T11:33:15.948Z,99.9
2022-11-22T11:38:15.725Z,99.9
2022-11-22T11:43:15.734Z,99.9
2022-11-22T11:48:15.886Z,99.9
2022-11-22T11:53:15.734Z,99.9
2022-11-22T11:58:17.587Z,99.9
2022-11-22T12:03:15.738Z,99.9
2022-11-22T12:08:16.232Z,99.9
2022-11-22T12:13:15.743Z,99.9
2022-11-22T12:18:15.735Z,99.9
2022-11-22T12:23:15.740Z,99.9
2022-11-22T12:28:15.809Z,99.9
2022-11-22T12:33:15.747Z,99.9
2022-11-22T12:38:15.732Z,99.9
2022-11-22T12:43:15.745Z,99.9
2022-11-22T12:48:15.856Z,99.9
2022-11-22T12:53:15.747Z,99.9
2022-11-22T12:58:15.738Z,99.9
2022-11-22T13:03:15.731Z,99.9
2022-11-22T13:08:15.864Z,99.9
2022-11-22T13:13:15.726Z,99.9
2022-11-22T13:18:15.711Z,99.9
2022-11-22T13:23:15.838Z,99.9
2022-11-22T13:28:15.742Z,99.9
2022-11-22T13:33:15.731Z,99.9
2022-11-22T13:38:15.712Z,99.9
2022-11-22T13:43:21.338Z,99.9
2022-11-22T13:48:15.858Z,99.9
2022-11-22T13:53:15.783Z,99.9
2022-11-22T13:58:15.866Z,99.9
2022-11-22T14:03:15.934Z,99.9
2022-11-22T14:08:15.866Z,99.9
2022-11-22T14:13:15.770Z,99.9
2022-11-22T14:18:15.746Z,99.9
2022-11-22T14:23:15.765Z,99.9
2022-11-22T14:28:15.884Z,99.9
2022-11-22T14:33:15.753Z,99.9
2022-11-22T14:38:15.746Z,99.9
2022-11-22T14:43:15.763Z,99.9
2022-11-22T14:48:15.890Z,99.9
2022-11-22T14:53:15.753Z,99.9
2022-11-22T14:58:15.736Z,99.9
2022-11-22T15:03:15.745Z,99.9
2022-11-22T15:09:08.574Z,99.9
2022-11-22T15:13:15.737Z,99.9
2022-11-22T15:58:15.735Z,99.9
2022-11-22T16:03:15.731Z,99.9
2022-11-22T16:08:15.874Z,99.9
2022-11-22T16:13:15.879Z,99.9
2022-11-22T16:18:15.726Z,99.9
2022-11-22T16:23:15.748Z,99.9
2022-11-22T16:28:15.853Z,99.9
2022-11-22T16:33:15.727Z,99.9
2022-11-22T16:38:15.727Z,99.9
2022-11-22T16:43:15.729Z,99.9
2022-11-22T16:48:31.134Z,99.9
2022-11-22T16:53:15.723Z,99.9
2022-11-22T16:58:15.744Z,99.9
2022-11-22T17:03:15.741Z,99.9
2022-11-22T17:08:15.870Z,99.9
2022-11-22T17:13:15.725Z,99.9
2022-11-22T17:18:15.716Z,99.9
2022-11-22T17:23:15.713Z,99.9
2022-11-22T17:28:15.924Z,99.9
2022-11-22T17:33:15.720Z,99.9
2022-11-22T17:38:15.728Z,99.9
2022-11-22T17:43:15.736Z,99.9
2022-11-22T17:48:15.837Z,99.9
2022-11-22T17:53:15.706Z,99.9
2022-11-22T17:58:15.717Z,99.9
2022-11-22T18:03:15.784Z,99.9
2022-11-22T18:08:15.840Z,99.9
2022-11-22T18:13:22.820Z,99.9
2022-11-22T18:18:33.495Z,99.9
2022-11-22T18:23:15.707Z,99.9
2022-11-22T18:28:15.824Z,99.9
2022-11-22T18:33:15.716Z,99.9
2022-11-22T18:38:15.703Z,99.9
2022-11-22T18:43:15.705Z,99.9
2022-11-22T18:48:15.720Z,99.9
2022-11-22T18:53:15.699Z,99.9
2022-11-22T18:58:15.701Z,99.9
2022-11-22T19:03:15.695Z,99.9
2022-11-22T19:08:15.819Z,99.9
2022-11-22T19:13:15.712Z,99.9
2022-11-22T19:18:15.687Z,99.9
2022-11-22T19:23:15.695Z,99.9
2022-11-22T19:28:15.838Z,99.9
2022-11-22T20:08:41.473Z,99.9
2022-11-22T20:13:41.345Z,99.9
2022-11-22T20:18:41.279Z,99.9
2022-11-22T20:23:41.326Z,99.9
2022-11-22T20:28:41.316Z,99.9
2022-11-22T20:33:41.651Z,99.9
2022-11-22T20:38:41.212Z,99.9
2022-11-22T20:43:41.200Z,99.9
2022-11-22T20:48:41.330Z,99.9
2022-11-22T20:53:41.252Z,99.9
2022-11-22T20:58:41.212Z,99.9
2022-11-22T21:03:41.213Z,99.9
2022-11-22T21:08:41.337Z,99.9
2022-11-22T21:13:41.161Z,99.9
2022-11-22T21:18:41.164Z,99.9
2022-11-22T21:23:41.158Z,99.9
2022-11-22T21:28:41.279Z,99.9
2022-11-22T21:33:41.178Z,99.9
2022-11-22T21:38:41.177Z,99.9
2022-11-22T21:43:43.759Z,99.9
2022-11-22T21:48:41.296Z,99.9
2022-11-22T21:53:41.230Z,99.9
2022-11-22T21:58:41.180Z,99.9
2022-11-22T22:03:41.270Z,99.9
2022-11-22T22:08:41.360Z,99.9
2022-11-22T22:13:41.177Z,99.9
2022-11-22T22:18:41.197Z,99.9
2022-11-22T22:23:41.193Z,99.9
2022-11-22T22:28:41.288Z,99.9
2022-11-22T22:33:41.210Z,99.9
2022-11-22T22:38:41.252Z,99.9
2022-11-22T22:43:41.247Z,99.9
2022-11-22T22:48:41.318Z,99.9
2022-11-22T22:53:41.246Z,99.9
2022-11-22T22:58:41.182Z,99.9
2022-11-22T23:03:41.253Z,99.9
2022-11-22T23:08:41.402Z,99.9
2022-11-22T23:13:41.193Z,99.9
2022-11-22T23:18:41.182Z,99.9
2022-11-22T23:23:41.258Z,99.9
2022-11-22T23:28:41.309Z,99.9
2022-11-22T23:33:41.269Z,99.9
2022-11-22T23:38:41.263Z,99.9
2022-11-22T23:43:41.198Z,99.9
2022-11-22T23:48:41.321Z,99.9
2022-11-22T23:53:41.191Z,99.9
2022-11-22T23:58:41.186Z,99.9
